sensor_id;sensor_type;location;lat;lon;timestamp;P1;durP1;ratioP1;P2;durP2;ratioP2
2173;SDS011;1093;51.424;11.764;2023-07-13T00:00:00;6.87;;;2.10;;
2173;SDS011;1093;51.424;11.764;2023-07-13T00:02:30;2.90;;;1.90;;
2173;SDS011;1093;51.424;11.764;2023-07-13T00:04:57;4.90;;;2.40;;
2173;SDS011;1093;51.424;11.764;2023-07-13T00:07:24;5.77;;;2.50;;
2173;SDS011;1093;51.424;11.764;2023-07-13T00:09:51;4.03;;;2.47;;
2173;SDS011;1093;51.424;11.764;2023-07-13T00:12:24;6.03;;;2.53;;
2173;SDS011;1093;51.424;11.764;2023-07-13T00:14:55;2.50;;;2.30;;
2173;SDS011;1093;51.424;11.764;2023-07-13T00:17:22;6.40;;;2.90;;
2173;SDS011;1093;51.424;11.764;2023-07-13T00:19:49;2.53;;;2.33;;
2173;SDS011;1093;51.424;11.764;2023-07-13T00:22:16;2.67;;;2.47;;
2173;SDS011;1093;51.424;11.764;2023-07-13T00:24:43;3.53;;;2.30;;
2173;SDS011;1093;51.424;11.764;2023-07-13T00:27:10;4.37;;;3.00;;
2173;SDS011;1093;51.424;11.764;2023-07-13T00:29:38;4.13;;;2.43;;
2173;SDS011;1093;51.424;11.764;2023-07-13T00:32:08;4.57;;;2.67;;
2173;SDS011;1093;51.424;11.764;2023-07-13T00:34:36;3.90;;;2.57;;
2173;SDS011;1093;51.424;11.764;2023-07-13T00:37:03;3.17;;;2.70;;
2173;SDS011;1093;51.424;11.764;2023-07-13T00:39:31;3.03;;;2.73;;
2173;SDS011;1093;51.424;11.764;2023-07-13T00:41:58;3.87;;;3.20;;
2173;SDS011;1093;51.424;11.764;2023-07-13T00:44:25;4.37;;;2.53;;
2173;SDS011;1093;51.424;11.764;2023-07-13T00:46:52;3.73;;;3.13;;
2173;SDS011;1093;51.424;11.764;2023-07-13T00:49:22;4.17;;;2.83;;
2173;SDS011;1093;51.424;11.764;2023-07-13T00:51:53;4.80;;;3.43;;
2173;SDS011;1093;51.424;11.764;2023-07-13T00:54:22;4.90;;;2.90;;
2173;SDS011;1093;51.424;11.764;2023-07-13T00:56:51;4.07;;;3.67;;
2173;SDS011;1093;51.424;11.764;2023-07-13T00:59:20;7.23;;;3.17;;
2173;SDS011;1093;51.424;11.764;2023-07-13T01:01:47;4.10;;;3.80;;
2173;SDS011;1093;51.424;11.764;2023-07-13T01:04:15;3.43;;;2.60;;
2173;SDS011;1093;51.424;11.764;2023-07-13T01:06:43;5.53;;;3.53;;
2173;SDS011;1093;51.424;11.764;2023-07-13T01:09:12;3.60;;;3.10;;
2173;SDS011;1093;51.424;11.764;2023-07-13T01:11:41;6.43;;;3.80;;
2173;SDS011;1093;51.424;11.764;2023-07-13T01:14:09;3.73;;;3.33;;
2173;SDS011;1093;51.424;11.764;2023-07-13T01:16:37;4.60;;;3.43;;
2173;SDS011;1093;51.424;11.764;2023-07-13T01:19:07;7.07;;;4.30;;
2173;SDS011;1093;51.424;11.764;2023-07-13T01:21:41;8.17;;;3.60;;
2173;SDS011;1093;51.424;11.764;2023-07-13T01:24:08;5.00;;;3.60;;
2173;SDS011;1093;51.424;11.764;2023-07-13T01:26:35;5.87;;;3.23;;
2173;SDS011;1093;51.424;11.764;2023-07-13T01:29:02;7.20;;;4.07;;
2173;SDS011;1093;51.424;11.764;2023-07-13T01:31:29;6.83;;;3.53;;
2173;SDS011;1093;51.424;11.764;2023-07-13T01:33:55;5.27;;;3.27;;
2173;SDS011;1093;51.424;11.764;2023-07-13T01:36:23;5.07;;;3.20;;
2173;SDS011;1093;51.424;11.764;2023-07-13T01:38:51;5.93;;;3.73;;
2173;SDS011;1093;51.424;11.764;2023-07-13T01:41:18;4.00;;;3.50;;
2173;SDS011;1093;51.424;11.764;2023-07-13T01:43:44;6.37;;;3.97;;
2173;SDS011;1093;51.424;11.764;2023-07-13T01:46:11;5.03;;;3.90;;
2173;SDS011;1093;51.424;11.764;2023-07-13T01:48:38;4.67;;;3.33;;
2173;SDS011;1093;51.424;11.764;2023-07-13T01:51:04;6.07;;;3.37;;
2173;SDS011;1093;51.424;11.764;2023-07-13T01:53:31;6.10;;;3.57;;
2173;SDS011;1093;51.424;11.764;2023-07-13T01:55:59;3.20;;;2.67;;
2173;SDS011;1093;51.424;11.764;2023-07-13T01:58:26;5.30;;;3.27;;
2173;SDS011;1093;51.424;11.764;2023-07-13T02:00:53;5.93;;;3.83;;
2173;SDS011;1093;51.424;11.764;2023-07-13T02:03:19;6.63;;;4.20;;
2173;SDS011;1093;51.424;11.764;2023-07-13T02:05:46;3.67;;;3.30;;
2173;SDS011;1093;51.424;11.764;2023-07-13T02:08:13;4.57;;;3.67;;
2173;SDS011;1093;51.424;11.764;2023-07-13T02:10:39;4.03;;;3.20;;
2173;SDS011;1093;51.424;11.764;2023-07-13T02:13:07;5.20;;;3.63;;
2173;SDS011;1093;51.424;11.764;2023-07-13T02:15:34;4.07;;;3.50;;
2173;SDS011;1093;51.424;11.764;2023-07-13T02:18:04;3.97;;;3.20;;
2173;SDS011;1093;51.424;11.764;2023-07-13T02:20:31;4.37;;;3.50;;
2173;SDS011;1093;51.424;11.764;2023-07-13T02:22:58;4.43;;;3.87;;
2173;SDS011;1093;51.424;11.764;2023-07-13T02:25:25;4.83;;;3.17;;
2173;SDS011;1093;51.424;11.764;2023-07-13T02:27:51;3.33;;;3.13;;
2173;SDS011;1093;51.424;11.764;2023-07-13T02:30:20;6.53;;;3.67;;
2173;SDS011;1093;51.424;11.764;2023-07-13T02:32:49;5.83;;;4.57;;
2173;SDS011;1093;51.424;11.764;2023-07-13T02:35:16;5.77;;;4.43;;
2173;SDS011;1093;51.424;11.764;2023-07-13T02:37:43;7.20;;;3.77;;
2173;SDS011;1093;51.424;11.764;2023-07-13T02:40:10;5.57;;;3.90;;
2173;SDS011;1093;51.424;11.764;2023-07-13T02:42:37;7.10;;;4.60;;
2173;SDS011;1093;51.424;11.764;2023-07-13T02:45:04;4.93;;;3.53;;
2173;SDS011;1093;51.424;11.764;2023-07-13T02:47:33;3.60;;;3.30;;
2173;SDS011;1093;51.424;11.764;2023-07-13T02:49:59;4.60;;;4.03;;
2173;SDS011;1093;51.424;11.764;2023-07-13T02:52:26;6.70;;;4.10;;
2173;SDS011;1093;51.424;11.764;2023-07-13T02:54:53;9.97;;;4.23;;
2173;SDS011;1093;51.424;11.764;2023-07-13T02:57:20;5.20;;;3.80;;
2173;SDS011;1093;51.424;11.764;2023-07-13T02:59:47;8.93;;;4.33;;
2173;SDS011;1093;51.424;11.764;2023-07-13T03:02:14;8.10;;;4.80;;
2173;SDS011;1093;51.424;11.764;2023-07-13T03:04:44;7.50;;;4.77;;
2173;SDS011;1093;51.424;11.764;2023-07-13T03:07:10;5.43;;;4.60;;
2173;SDS011;1093;51.424;11.764;2023-07-13T03:09:37;5.90;;;4.47;;
2173;SDS011;1093;51.424;11.764;2023-07-13T03:12:05;10.07;;;4.07;;
2173;SDS011;1093;51.424;11.764;2023-07-13T03:14:32;9.60;;;3.90;;
2173;SDS011;1093;51.424;11.764;2023-07-13T03:16:59;5.50;;;3.90;;
2173;SDS011;1093;51.424;11.764;2023-07-13T03:19:26;9.70;;;4.63;;
2173;SDS011;1093;51.424;11.764;2023-07-13T03:21:54;7.47;;;4.80;;
2173;SDS011;1093;51.424;11.764;2023-07-13T03:24:20;5.10;;;4.60;;
2173;SDS011;1093;51.424;11.764;2023-07-13T03:26:49;5.90;;;4.07;;
2173;SDS011;1093;51.424;11.764;2023-07-13T03:29:16;5.47;;;3.90;;
2173;SDS011;1093;51.424;11.764;2023-07-13T03:31:42;5.00;;;4.50;;
2173;SDS011;1093;51.424;11.764;2023-07-13T03:34:09;5.00;;;3.97;;
2173;SDS011;1093;51.424;11.764;2023-07-13T03:36:36;5.43;;;4.50;;
2173;SDS011;1093;51.424;11.764;2023-07-13T03:39:04;9.97;;;4.47;;
2173;SDS011;1093;51.424;11.764;2023-07-13T03:41:33;6.13;;;4.50;;
2173;SDS011;1093;51.424;11.764;2023-07-13T03:44:00;6.87;;;4.77;;
2173;SDS011;1093;51.424;11.764;2023-07-13T03:46:27;7.90;;;4.73;;
2173;SDS011;1093;51.424;11.764;2023-07-13T03:48:54;8.20;;;4.40;;
2173;SDS011;1093;51.424;11.764;2023-07-13T03:51:22;7.47;;;4.53;;
2173;SDS011;1093;51.424;11.764;2023-07-13T03:53:49;4.63;;;4.20;;
2173;SDS011;1093;51.424;11.764;2023-07-13T03:56:18;4.73;;;4.33;;
2173;SDS011;1093;51.424;11.764;2023-07-13T03:58:45;8.00;;;4.23;;
2173;SDS011;1093;51.424;11.764;2023-07-13T04:01:13;7.00;;;4.93;;
2173;SDS011;1093;51.424;11.764;2023-07-13T04:03:41;6.80;;;4.47;;
2173;SDS011;1093;51.424;11.764;2023-07-13T04:06:11;6.13;;;3.93;;
2173;SDS011;1093;51.424;11.764;2023-07-13T04:08:46;6.23;;;4.70;;
2173;SDS011;1093;51.424;11.764;2023-07-13T04:11:15;7.73;;;4.60;;
2173;SDS011;1093;51.424;11.764;2023-07-13T04:13:43;5.13;;;3.77;;
2173;SDS011;1093;51.424;11.764;2023-07-13T04:16:10;7.27;;;4.47;;
2173;SDS011;1093;51.424;11.764;2023-07-13T04:18:36;5.60;;;4.63;;
2173;SDS011;1093;51.424;11.764;2023-07-13T04:21:03;9.77;;;4.27;;
2173;SDS011;1093;51.424;11.764;2023-07-13T04:23:30;6.57;;;4.03;;
2173;SDS011;1093;51.424;11.764;2023-07-13T04:25:57;7.50;;;3.90;;
2173;SDS011;1093;51.424;11.764;2023-07-13T04:28:24;6.53;;;4.33;;
2173;SDS011;1093;51.424;11.764;2023-07-13T04:30:53;4.23;;;3.53;;
2173;SDS011;1093;51.424;11.764;2023-07-13T04:33:20;8.00;;;4.70;;
2173;SDS011;1093;51.424;11.764;2023-07-13T04:35:47;7.00;;;4.17;;
2173;SDS011;1093;51.424;11.764;2023-07-13T04:38:14;6.20;;;4.60;;
2173;SDS011;1093;51.424;11.764;2023-07-13T04:40:42;9.70;;;5.47;;
2173;SDS011;1093;51.424;11.764;2023-07-13T04:43:11;7.13;;;4.83;;
2173;SDS011;1093;51.424;11.764;2023-07-13T04:45:38;10.40;;;4.97;;
2173;SDS011;1093;51.424;11.764;2023-07-13T04:48:06;8.23;;;4.40;;
2173;SDS011;1093;51.424;11.764;2023-07-13T04:50:32;6.10;;;5.03;;
2173;SDS011;1093;51.424;11.764;2023-07-13T04:53:02;7.93;;;4.87;;
2173;SDS011;1093;51.424;11.764;2023-07-13T04:55:29;6.80;;;4.20;;
2173;SDS011;1093;51.424;11.764;2023-07-13T04:57:56;6.23;;;4.07;;
2173;SDS011;1093;51.424;11.764;2023-07-13T05:00:23;6.07;;;3.87;;
2173;SDS011;1093;51.424;11.764;2023-07-13T05:02:50;4.43;;;3.90;;
2173;SDS011;1093;51.424;11.764;2023-07-13T05:05:18;5.53;;;4.07;;
2173;SDS011;1093;51.424;11.764;2023-07-13T05:07:45;5.93;;;4.73;;
2173;SDS011;1093;51.424;11.764;2023-07-13T05:10:12;5.20;;;4.70;;
2173;SDS011;1093;51.424;11.764;2023-07-13T05:12:39;8.33;;;4.57;;
2173;SDS011;1093;51.424;11.764;2023-07-13T05:15:06;12.07;;;4.30;;
2173;SDS011;1093;51.424;11.764;2023-07-13T05:17:33;6.30;;;3.97;;
2173;SDS011;1093;51.424;11.764;2023-07-13T05:20:00;9.13;;;4.30;;
2173;SDS011;1093;51.424;11.764;2023-07-13T05:22:28;14.00;;;4.87;;
2173;SDS011;1093;51.424;11.764;2023-07-13T05:24:55;7.77;;;4.17;;
2173;SDS011;1093;51.424;11.764;2023-07-13T05:27:22;7.57;;;3.87;;
2173;SDS011;1093;51.424;11.764;2023-07-13T05:29:49;4.07;;;3.67;;
2173;SDS011;1093;51.424;11.764;2023-07-13T05:32:16;6.60;;;3.43;;
2173;SDS011;1093;51.424;11.764;2023-07-13T05:34:43;4.97;;;3.47;;
2173;SDS011;1093;51.424;11.764;2023-07-13T05:37:10;5.03;;;3.63;;
2173;SDS011;1093;51.424;11.764;2023-07-13T05:39:38;5.30;;;4.00;;
2173;SDS011;1093;51.424;11.764;2023-07-13T05:42:05;10.87;;;4.10;;
2173;SDS011;1093;51.424;11.764;2023-07-13T05:44:32;3.60;;;3.13;;
2173;SDS011;1093;51.424;11.764;2023-07-13T05:46:59;5.50;;;3.57;;
2173;SDS011;1093;51.424;11.764;2023-07-13T05:49:26;4.33;;;3.50;;
2173;SDS011;1093;51.424;11.764;2023-07-13T05:51:55;3.77;;;2.83;;
2173;SDS011;1093;51.424;11.764;2023-07-13T05:54:22;5.60;;;2.40;;
2173;SDS011;1093;51.424;11.764;2023-07-13T05:56:50;7.30;;;2.70;;
2173;SDS011;1093;51.424;11.764;2023-07-13T05:59:17;5.73;;;2.43;;
2173;SDS011;1093;51.424;11.764;2023-07-13T06:01:44;3.50;;;2.43;;
2173;SDS011;1093;51.424;11.764;2023-07-13T06:04:11;6.33;;;2.50;;
2173;SDS011;1093;51.424;11.764;2023-07-13T06:06:37;6.77;;;3.23;;
2173;SDS011;1093;51.424;11.764;2023-07-13T06:09:04;4.50;;;3.27;;
2173;SDS011;1093;51.424;11.764;2023-07-13T06:11:31;4.67;;;2.50;;
2173;SDS011;1093;51.424;11.764;2023-07-13T06:13:59;6.03;;;2.70;;
2173;SDS011;1093;51.424;11.764;2023-07-13T06:16:26;3.50;;;2.50;;
2173;SDS011;1093;51.424;11.764;2023-07-13T06:18:52;6.43;;;2.73;;
2173;SDS011;1093;51.424;11.764;2023-07-13T06:21:20;5.67;;;2.40;;
2173;SDS011;1093;51.424;11.764;2023-07-13T06:23:48;4.90;;;2.17;;
2173;SDS011;1093;51.424;11.764;2023-07-13T06:26:16;8.10;;;2.20;;
2173;SDS011;1093;51.424;11.764;2023-07-13T06:28:44;7.07;;;2.60;;
2173;SDS011;1093;51.424;11.764;2023-07-13T06:31:14;3.97;;;3.20;;
2173;SDS011;1093;51.424;11.764;2023-07-13T06:33:41;4.30;;;2.27;;
2173;SDS011;1093;51.424;11.764;2023-07-13T06:36:09;4.60;;;2.50;;
2173;SDS011;1093;51.424;11.764;2023-07-13T06:38:36;6.07;;;3.10;;
2173;SDS011;1093;51.424;11.764;2023-07-13T06:41:03;3.30;;;2.67;;
2173;SDS011;1093;51.424;11.764;2023-07-13T06:43:31;4.23;;;2.57;;
2173;SDS011;1093;51.424;11.764;2023-07-13T06:45:57;6.90;;;2.77;;
2173;SDS011;1093;51.424;11.764;2023-07-13T06:48:26;6.40;;;2.70;;
2173;SDS011;1093;51.424;11.764;2023-07-13T06:50:53;3.77;;;1.80;;
2173;SDS011;1093;51.424;11.764;2023-07-13T06:53:20;6.07;;;2.07;;
2173;SDS011;1093;51.424;11.764;2023-07-13T06:55:47;3.83;;;2.00;;
2173;SDS011;1093;51.424;11.764;2023-07-13T06:58:14;5.03;;;1.87;;
2173;SDS011;1093;51.424;11.764;2023-07-13T07:00:42;7.50;;;2.77;;
2173;SDS011;1093;51.424;11.764;2023-07-13T07:03:09;3.00;;;1.87;;
2173;SDS011;1093;51.424;11.764;2023-07-13T07:05:37;4.90;;;2.23;;
2173;SDS011;1093;51.424;11.764;2023-07-13T07:08:04;4.90;;;2.63;;
2173;SDS011;1093;51.424;11.764;2023-07-13T07:10:31;6.63;;;2.50;;
2173;SDS011;1093;51.424;11.764;2023-07-13T07:12:58;7.80;;;3.50;;
2173;SDS011;1093;51.424;11.764;2023-07-13T07:15:25;5.13;;;2.40;;
2173;SDS011;1093;51.424;11.764;2023-07-13T07:17:52;4.10;;;2.97;;
2173;SDS011;1093;51.424;11.764;2023-07-13T07:20:20;7.67;;;3.87;;
2173;SDS011;1093;51.424;11.764;2023-07-13T07:22:48;5.17;;;2.20;;
2173;SDS011;1093;51.424;11.764;2023-07-13T07:25:15;5.23;;;2.60;;
2173;SDS011;1093;51.424;11.764;2023-07-13T07:27:42;3.53;;;2.50;;
2173;SDS011;1093;51.424;11.764;2023-07-13T07:30:09;9.50;;;2.80;;
2173;SDS011;1093;51.424;11.764;2023-07-13T07:32:36;3.00;;;2.80;;
2173;SDS011;1093;51.424;11.764;2023-07-13T07:35:03;7.10;;;3.30;;
2173;SDS011;1093;51.424;11.764;2023-07-13T07:37:30;5.40;;;3.30;;
2173;SDS011;1093;51.424;11.764;2023-07-13T07:39:58;4.60;;;3.03;;
2173;SDS011;1093;51.424;11.764;2023-07-13T07:42:25;3.40;;;3.07;;
2173;SDS011;1093;51.424;11.764;2023-07-13T07:44:52;6.93;;;3.47;;
2173;SDS011;1093;51.424;11.764;2023-07-13T07:47:19;4.43;;;2.97;;
2173;SDS011;1093;51.424;11.764;2023-07-13T07:49:48;4.63;;;2.83;;
2173;SDS011;1093;51.424;11.764;2023-07-13T07:52:14;3.17;;;2.80;;
2173;SDS011;1093;51.424;11.764;2023-07-13T07:54:41;6.73;;;2.77;;
2173;SDS011;1093;51.424;11.764;2023-07-13T07:57:09;3.73;;;2.77;;
2173;SDS011;1093;51.424;11.764;2023-07-13T07:59:36;5.43;;;2.70;;
2173;SDS011;1093;51.424;11.764;2023-07-13T08:02:04;8.07;;;3.70;;
2173;SDS011;1093;51.424;11.764;2023-07-13T08:04:31;5.07;;;2.93;;
2173;SDS011;1093;51.424;11.764;2023-07-13T08:06:57;8.90;;;3.40;;
2173;SDS011;1093;51.424;11.764;2023-07-13T08:09:25;8.13;;;3.50;;
2173;SDS011;1093;51.424;11.764;2023-07-13T08:11:52;3.60;;;2.27;;
2173;SDS011;1093;51.424;11.764;2023-07-13T08:14:21;4.40;;;2.90;;
2173;SDS011;1093;51.424;11.764;2023-07-13T08:16:47;8.47;;;3.23;;
2173;SDS011;1093;51.424;11.764;2023-07-13T08:19:14;4.23;;;3.70;;
2173;SDS011;1093;51.424;11.764;2023-07-13T08:21:41;5.07;;;2.90;;
2173;SDS011;1093;51.424;11.764;2023-07-13T08:24:09;3.87;;;2.93;;
2173;SDS011;1093;51.424;11.764;2023-07-13T08:26:36;7.37;;;3.57;;
2173;SDS011;1093;51.424;11.764;2023-07-13T08:29:02;7.30;;;3.00;;
2173;SDS011;1093;51.424;11.764;2023-07-13T08:31:30;5.33;;;3.13;;
2173;SDS011;1093;51.424;11.764;2023-07-13T08:33:57;5.27;;;3.30;;
2173;SDS011;1093;51.424;11.764;2023-07-13T08:36:25;7.03;;;3.13;;
2173;SDS011;1093;51.424;11.764;2023-07-13T08:38:51;6.10;;;3.00;;
2173;SDS011;1093;51.424;11.764;2023-07-13T08:41:18;3.40;;;2.70;;
2173;SDS011;1093;51.424;11.764;2023-07-13T08:43:47;5.13;;;2.83;;
2173;SDS011;1093;51.424;11.764;2023-07-13T08:46:18;8.70;;;3.40;;
2173;SDS011;1093;51.424;11.764;2023-07-13T08:48:52;4.03;;;2.93;;
2173;SDS011;1093;51.424;11.764;2023-07-13T08:51:27;8.07;;;3.10;;
2173;SDS011;1093;51.424;11.764;2023-07-13T08:54:03;5.50;;;3.17;;
2173;SDS011;1093;51.424;11.764;2023-07-13T08:56:34;3.77;;;3.03;;
2173;SDS011;1093;51.424;11.764;2023-07-13T08:59:03;7.83;;;3.50;;
2173;SDS011;1093;51.424;11.764;2023-07-13T09:01:43;4.37;;;2.43;;
2173;SDS011;1093;51.424;11.764;2023-07-13T09:04:22;6.43;;;2.73;;
2173;SDS011;1093;51.424;11.764;2023-07-13T09:06:55;5.30;;;2.60;;
2173;SDS011;1093;51.424;11.764;2023-07-13T09:09:29;9.73;;;2.60;;
2173;SDS011;1093;51.424;11.764;2023-07-13T09:12:09;7.67;;;2.63;;
2173;SDS011;1093;51.424;11.764;2023-07-13T09:14:41;2.80;;;2.43;;
2173;SDS011;1093;51.424;11.764;2023-07-13T09:17:12;2.40;;;2.20;;
2173;SDS011;1093;51.424;11.764;2023-07-13T09:19:44;5.53;;;3.00;;
2173;SDS011;1093;51.424;11.764;2023-07-13T09:22:16;2.93;;;2.57;;
2173;SDS011;1093;51.424;11.764;2023-07-13T09:24:50;3.67;;;2.90;;
2173;SDS011;1093;51.424;11.764;2023-07-13T09:27:22;7.73;;;2.70;;
2173;SDS011;1093;51.424;11.764;2023-07-13T09:29:51;3.10;;;2.40;;
2173;SDS011;1093;51.424;11.764;2023-07-13T09:32:23;3.80;;;2.43;;
2173;SDS011;1093;51.424;11.764;2023-07-13T09:34:54;3.63;;;2.33;;
2173;SDS011;1093;51.424;11.764;2023-07-13T09:37:21;7.50;;;2.03;;
2173;SDS011;1093;51.424;11.764;2023-07-13T09:39:54;6.30;;;2.60;;
2173;SDS011;1093;51.424;11.764;2023-07-13T09:42:24;4.90;;;2.60;;
2173;SDS011;1093;51.424;11.764;2023-07-13T09:44:55;2.60;;;2.40;;
2173;SDS011;1093;51.424;11.764;2023-07-13T09:47:24;5.77;;;3.10;;
2173;SDS011;1093;51.424;11.764;2023-07-13T09:49:58;2.60;;;1.73;;
2173;SDS011;1093;51.424;11.764;2023-07-13T09:52:26;7.73;;;2.40;;
2173;SDS011;1093;51.424;11.764;2023-07-13T09:54:54;8.90;;;2.57;;
2173;SDS011;1093;51.424;11.764;2023-07-13T09:57:25;5.93;;;2.33;;
2173;SDS011;1093;51.424;11.764;2023-07-13T09:59:53;4.03;;;2.80;;
2173;SDS011;1093;51.424;11.764;2023-07-13T10:02:24;6.83;;;3.10;;
2173;SDS011;1093;51.424;11.764;2023-07-13T10:04:57;6.03;;;2.90;;
2173;SDS011;1093;51.424;11.764;2023-07-13T10:07:25;5.97;;;2.60;;
2173;SDS011;1093;51.424;11.764;2023-07-13T10:09:52;4.03;;;3.20;;
2173;SDS011;1093;51.424;11.764;2023-07-13T10:12:20;8.07;;;3.57;;
2173;SDS011;1093;51.424;11.764;2023-07-13T10:14:49;6.67;;;2.93;;
2173;SDS011;1093;51.424;11.764;2023-07-13T10:17:20;4.67;;;2.33;;
2173;SDS011;1093;51.424;11.764;2023-07-13T10:19:57;8.23;;;2.60;;
2173;SDS011;1093;51.424;11.764;2023-07-13T10:22:27;3.10;;;1.80;;
2173;SDS011;1093;51.424;11.764;2023-07-13T10:24:57;4.33;;;1.97;;
2173;SDS011;1093;51.424;11.764;2023-07-13T10:27:27;4.37;;;1.90;;
2173;SDS011;1093;51.424;11.764;2023-07-13T10:30:01;3.83;;;1.67;;
2173;SDS011;1093;51.424;11.764;2023-07-13T10:32:33;2.70;;;1.60;;
2173;SDS011;1093;51.424;11.764;2023-07-13T10:35:02;2.53;;;2.27;;
2173;SDS011;1093;51.424;11.764;2023-07-13T10:37:34;5.13;;;2.40;;
2173;SDS011;1093;51.424;11.764;2023-07-13T10:40:12;2.40;;;1.93;;
2173;SDS011;1093;51.424;11.764;2023-07-13T10:42:44;5.30;;;1.97;;
2173;SDS011;1093;51.424;11.764;2023-07-13T10:45:14;2.77;;;1.33;;
2173;SDS011;1093;51.424;11.764;2023-07-13T10:47:43;2.00;;;1.47;;
2173;SDS011;1093;51.424;11.764;2023-07-13T10:50:15;2.73;;;1.67;;
2173;SDS011;1093;51.424;11.764;2023-07-13T10:52:46;3.80;;;1.57;;
2173;SDS011;1093;51.424;11.764;2023-07-13T10:55:31;4.00;;;1.50;;
2173;SDS011;1093;51.424;11.764;2023-07-13T10:58:02;3.40;;;1.77;;
2173;SDS011;1093;51.424;11.764;2023-07-13T11:00:42;3.60;;;1.50;;
2173;SDS011;1093;51.424;11.764;2023-07-13T11:03:13;2.90;;;1.53;;
2173;SDS011;1093;51.424;11.764;2023-07-13T11:05:45;2.80;;;1.40;;
2173;SDS011;1093;51.424;11.764;2023-07-13T11:08:18;13.03;;;2.10;;
2173;SDS011;1093;51.424;11.764;2023-07-13T11:10:52;4.43;;;1.70;;
2173;SDS011;1093;51.424;11.764;2023-07-13T11:13:36;3.00;;;1.80;;
2173;SDS011;1093;51.424;11.764;2023-07-13T11:16:35;2.40;;;1.90;;
2173;SDS011;1093;51.424;11.764;2023-07-13T11:19:21;2.30;;;1.37;;
2173;SDS011;1093;51.424;11.764;2023-07-13T11:22:13;2.47;;;1.50;;
2173;SDS011;1093;51.424;11.764;2023-07-13T11:24:50;2.37;;;1.37;;
2173;SDS011;1093;51.424;11.764;2023-07-13T11:27:32;2.73;;;1.40;;
2173;SDS011;1093;51.424;11.764;2023-07-13T11:30:08;6.30;;;1.63;;
2173;SDS011;1093;51.424;11.764;2023-07-13T11:32:51;2.80;;;1.00;;
2173;SDS011;1093;51.424;11.764;2023-07-13T11:35:30;3.03;;;1.67;;
2173;SDS011;1093;51.424;11.764;2023-07-13T11:38:01;2.50;;;1.40;;
2173;SDS011;1093;51.424;11.764;2023-07-13T11:40:28;3.00;;;1.63;;
2173;SDS011;1093;51.424;11.764;2023-07-13T11:42:59;2.90;;;1.30;;
2173;SDS011;1093;51.424;11.764;2023-07-13T11:45:27;4.20;;;1.60;;
2173;SDS011;1093;51.424;11.764;2023-07-13T11:47:54;2.30;;;1.30;;
2173;SDS011;1093;51.424;11.764;2023-07-13T11:50:25;5.00;;;1.63;;
2173;SDS011;1093;51.424;11.764;2023-07-13T11:52:52;2.80;;;1.00;;
2173;SDS011;1093;51.424;11.764;2023-07-13T11:55:23;2.43;;;1.40;;
2173;SDS011;1093;51.424;11.764;2023-07-13T11:57:50;6.20;;;1.77;;
2173;SDS011;1093;51.424;11.764;2023-07-13T12:00:23;3.83;;;1.60;;
2173;SDS011;1093;51.424;11.764;2023-07-13T12:02:55;2.07;;;1.40;;
2173;SDS011;1093;51.424;11.764;2023-07-13T12:05:25;2.63;;;1.40;;
2173;SDS011;1093;51.424;11.764;2023-07-13T12:07:53;3.60;;;1.40;;
2173;SDS011;1093;51.424;11.764;2023-07-13T12:10:22;1.77;;;1.20;;
2173;SDS011;1093;51.424;11.764;2023-07-13T12:12:54;3.40;;;1.23;;
2173;SDS011;1093;51.424;11.764;2023-07-13T12:15:23;4.60;;;1.60;;
2173;SDS011;1093;51.424;11.764;2023-07-13T12:17:55;2.60;;;1.30;;
2173;SDS011;1093;51.424;11.764;2023-07-13T12:20:24;2.70;;;1.63;;
2173;SDS011;1093;51.424;11.764;2023-07-13T12:22:52;4.03;;;1.83;;
2173;SDS011;1093;51.424;11.764;2023-07-13T12:25:19;3.47;;;1.30;;
2173;SDS011;1093;51.424;11.764;2023-07-13T12:27:50;2.97;;;1.70;;
2173;SDS011;1093;51.424;11.764;2023-07-13T12:30:25;4.03;;;1.90;;
2173;SDS011;1093;51.424;11.764;2023-07-13T12:32:56;6.80;;;1.73;;
2173;SDS011;1093;51.424;11.764;2023-07-13T12:35:26;10.73;;;1.83;;
2173;SDS011;1093;51.424;11.764;2023-07-13T12:37:56;3.27;;;1.93;;
2173;SDS011;1093;51.424;11.764;2023-07-13T12:40:26;4.27;;;1.50;;
2173;SDS011;1093;51.424;11.764;2023-07-13T12:42:59;2.17;;;1.37;;
2173;SDS011;1093;51.424;11.764;2023-07-13T12:45:29;4.40;;;1.60;;
2173;SDS011;1093;51.424;11.764;2023-07-13T12:47:57;2.00;;;1.50;;
2173;SDS011;1093;51.424;11.764;2023-07-13T12:50:28;2.13;;;1.47;;
2173;SDS011;1093;51.424;11.764;2023-07-13T12:53:01;10.13;;;2.67;;
2173;SDS011;1093;51.424;11.764;2023-07-13T12:55:39;2.50;;;1.47;;
2173;SDS011;1093;51.424;11.764;2023-07-13T12:58:13;4.60;;;1.97;;
2173;SDS011;1093;51.424;11.764;2023-07-13T13:00:53;3.10;;;1.30;;
2173;SDS011;1093;51.424;11.764;2023-07-13T13:03:22;3.40;;;1.90;;
2173;SDS011;1093;51.424;11.764;2023-07-13T13:05:59;1.43;;;1.13;;
2173;SDS011;1093;51.424;11.764;2023-07-13T13:08:28;2.30;;;1.60;;
2173;SDS011;1093;51.424;11.764;2023-07-13T13:10:55;6.10;;;2.00;;
2173;SDS011;1093;51.424;11.764;2023-07-13T13:13:23;4.53;;;1.43;;
2173;SDS011;1093;51.424;11.764;2023-07-13T13:15:50;3.00;;;1.40;;
2173;SDS011;1093;51.424;11.764;2023-07-13T13:18:19;2.30;;;1.63;;
2173;SDS011;1093;51.424;11.764;2023-07-13T13:20:47;3.33;;;1.00;;
2173;SDS011;1093;51.424;11.764;2023-07-13T13:23:15;13.80;;;1.73;;
2173;SDS011;1093;51.424;11.764;2023-07-13T13:25:43;1.90;;;1.40;;
2173;SDS011;1093;51.424;11.764;2023-07-13T13:28:13;5.13;;;1.40;;
2173;SDS011;1093;51.424;11.764;2023-07-13T13:30:44;3.03;;;1.63;;
2173;SDS011;1093;51.424;11.764;2023-07-13T13:33:12;3.40;;;1.40;;
2173;SDS011;1093;51.424;11.764;2023-07-13T13:35:42;3.97;;;1.33;;
2173;SDS011;1093;51.424;11.764;2023-07-13T13:38:10;3.07;;;1.37;;
2173;SDS011;1093;51.424;11.764;2023-07-13T13:40:39;6.83;;;2.23;;
2173;SDS011;1093;51.424;11.764;2023-07-13T13:43:13;4.13;;;1.20;;
2173;SDS011;1093;51.424;11.764;2023-07-13T13:45:41;2.60;;;1.30;;
2173;SDS011;1093;51.424;11.764;2023-07-13T13:48:13;2.83;;;1.77;;
2173;SDS011;1093;51.424;11.764;2023-07-13T13:50:41;2.57;;;1.40;;
2173;SDS011;1093;51.424;11.764;2023-07-13T13:53:10;5.03;;;1.67;;
2173;SDS011;1093;51.424;11.764;2023-07-13T13:55:38;2.90;;;1.87;;
2173;SDS011;1093;51.424;11.764;2023-07-13T13:58:07;4.60;;;1.40;;
2173;SDS011;1093;51.424;11.764;2023-07-13T14:00:35;3.67;;;1.47;;
2173;SDS011;1093;51.424;11.764;2023-07-13T14:03:03;3.40;;;1.83;;
2173;SDS011;1093;51.424;11.764;2023-07-13T14:05:32;2.30;;;1.90;;
2173;SDS011;1093;51.424;11.764;2023-07-13T14:07:59;2.23;;;1.30;;
2173;SDS011;1093;51.424;11.764;2023-07-13T14:10:26;3.80;;;2.03;;
2173;SDS011;1093;51.424;11.764;2023-07-13T14:12:54;1.83;;;1.40;;
2173;SDS011;1093;51.424;11.764;2023-07-13T14:15:23;11.43;;;1.70;;
2173;SDS011;1093;51.424;11.764;2023-07-13T14:17:52;3.23;;;1.53;;
2173;SDS011;1093;51.424;11.764;2023-07-13T14:20:21;2.70;;;1.97;;
2173;SDS011;1093;51.424;11.764;2023-07-13T14:22:50;1.73;;;1.40;;
2173;SDS011;1093;51.424;11.764;2023-07-13T14:25:18;2.07;;;1.30;;
2173;SDS011;1093;51.424;11.764;2023-07-13T14:27:46;2.37;;;1.40;;
2173;SDS011;1093;51.424;11.764;2023-07-13T14:30:17;1.80;;;1.33;;
2173;SDS011;1093;51.424;11.764;2023-07-13T14:32:45;2.17;;;1.50;;
2173;SDS011;1093;51.424;11.764;2023-07-13T14:35:14;2.97;;;2.00;;
2173;SDS011;1093;51.424;11.764;2023-07-13T14:37:44;5.60;;;2.03;;
2173;SDS011;1093;51.424;11.764;2023-07-13T14:40:12;3.53;;;1.30;;
2173;SDS011;1093;51.424;11.764;2023-07-13T14:42:40;1.77;;;1.47;;
2173;SDS011;1093;51.424;11.764;2023-07-13T14:45:12;3.47;;;1.77;;
2173;SDS011;1093;51.424;11.764;2023-07-13T14:47:39;3.63;;;1.67;;
2173;SDS011;1093;51.424;11.764;2023-07-13T14:50:11;2.07;;;1.40;;
2173;SDS011;1093;51.424;11.764;2023-07-13T14:52:41;5.00;;;1.50;;
2173;SDS011;1093;51.424;11.764;2023-07-13T14:55:11;2.07;;;1.30;;
2173;SDS011;1093;51.424;11.764;2023-07-13T14:57:39;3.37;;;1.90;;
2173;SDS011;1093;51.424;11.764;2023-07-13T15:00:09;2.20;;;1.20;;
2173;SDS011;1093;51.424;11.764;2023-07-13T15:02:40;3.00;;;1.53;;
2173;SDS011;1093;51.424;11.764;2023-07-13T15:05:12;4.83;;;1.80;;
2173;SDS011;1093;51.424;11.764;2023-07-13T15:07:40;3.70;;;1.70;;
2173;SDS011;1093;51.424;11.764;2023-07-13T15:10:18;1.83;;;1.57;;